sensor_id;sensor_type;location;lat;lon;timestamp;temperature;humidity
51853;DHT22;37894;53.172;6.598;2022-11-18T00:01:21;6.90;99.90
51853;DHT22;37894;53.172;6.598;2022-11-18T00:03:47;6.50;99.90
51853;DHT22;37894;53.172;6.598;2022-11-18T00:06:16;6.30;99.90
51853;DHT22;37894;53.172;6.598;2022-11-18T00:08:42;7.10;99.90
51853;DHT22;37894;53.172;6.598;2022-11-18T00:11:16;6.70;99.90
51853;DHT22;37894;53.172;6.598;2022-11-18T00:14:01;6.70;99.90
51853;DHT22;37894;53.172;6.598;2022-11-18T00:16:51;7.00;99.90
51853;DHT22;37894;53.172;6.598;2022-11-18T00:19:19;6.50;99.90
51853;DHT22;37894;53.172;6.598;2022-11-18T00:21:45;6.70;99.90
51853;DHT22;37894;53.172;6.598;2022-11-18T00:24:11;6.90;99.90
51853;DHT22;37894;53.172;6.598;2022-11-18T00:26:36;6.50;99.90
51853;DHT22;37894;53.172;6.598;2022-11-18T00:29:03;6.70;99.90
51853;DHT22;37894;53.172;6.598;2022-11-18T00:31:29;7.90;99.90
51853;DHT22;37894;53.172;6.598;2022-11-18T00:33:55;6.70;99.90
51853;DHT22;37894;53.172;6.598;2022-11-18T00:36:21;6.50;99.90
51853;DHT22;37894;53.172;6.598;2022-11-18T00:38:46;7.50;99.90
51853;DHT22;37894;53.172;6.598;2022-11-18T00:41:13;7.00;99.90
51853;DHT22;37894;53.172;6.598;2022-11-18T00:43:40;6.70;99.90
51853;DHT22;37894;53.172;6.598;2022-11-18T00:46:08;6.70;99.90
51853;DHT22;37894;53.172;6.598;2022-11-18T00:48:35;6.70;99.90
51853;DHT22;37894;53.172;6.598;2022-11-18T00:53:35;6.70;99.90
51853;DHT22;37894;53.172;6.598;2022-11-18T00:56:01;6.70;99.90
51853;DHT22;37894;53.172;6.598;2022-11-18T00:58:27;6.70;99.90
51853;DHT22;37894;53.172;6.598;2022-11-18T01:00:54;6.70;99.90
51853;DHT22;37894;53.172;6.598;2022-11-18T01:03:20;6.70;99.90
51853;DHT22;37894;53.172;6.598;2022-11-18T01:05:46;6.60;99.90
51853;DHT22;37894;53.172;6.598;2022-11-18T01:08:13;6.90;99.90
51853;DHT22;37894;53.172;6.598;2022-11-18T01:10:40;7.50;99.90
51853;DHT22;37894;53.172;6.598;2022-11-18T01:13:11;6.60;99.90
51853;DHT22;37894;53.172;6.598;2022-11-18T01:16:05;6.60;99.90
51853;DHT22;37894;53.172;6.598;2022-11-18T01:18:31;7.90;99.90
51853;DHT22;37894;53.172;6.598;2022-11-18T01:21:01;6.50;99.90
51853;DHT22;37894;53.172;6.598;2022-11-18T01:23:28;6.60;99.90
51853;DHT22;37894;53.172;6.598;2022-11-18T01:25:54;6.90;99.90
51853;DHT22;37894;53.172;6.598;2022-11-18T01:28:20;7.50;99.90
51853;DHT22;37894;53.172;6.598;2022-11-18T01:30:46;6.70;99.90
51853;DHT22;37894;53.172;6.598;2022-11-18T01:33:12;6.60;99.90
51853;DHT22;37894;53.172;6.598;2022-11-18T01:35:40;6.60;99.90
51853;DHT22;37894;53.172;6.598;2022-11-18T01:38:07;6.60;99.90
51853;DHT22;37894;53.172;6.598;2022-11-18T01:40:33;6.70;99.90
51853;DHT22;37894;53.172;6.598;2022-11-18T01:42:59;7.60;99.90
51853;DHT22;37894;53.172;6.598;2022-11-18T01:45:37;6.70;99.90
51853;DHT22;37894;53.172;6.598;2022-11-18T01:51:06;6.40;99.90
51853;DHT22;37894;53.172;6.598;2022-11-18T01:53:40;6.60;99.90
51853;DHT22;37894;53.172;6.598;2022-11-18T01:56:12;6.80;99.90
51853;DHT22;37894;53.172;6.598;2022-11-18T01:58:53;6.60;99.90
51853;DHT22;37894;53.172;6.598;2022-11-18T02:01:20;6.60;99.90
51853;DHT22;37894;53.172;6.598;2022-11-18T02:03:47;7.80;99.90
51853;DHT22;37894;53.172;6.598;2022-11-18T02:06:13;6.60;99.90
51853;DHT22;37894;53.172;6.598;2022-11-18T02:08:40;6.70;99.90
51853;DHT22;37894;53.172;6.598;2022-11-18T02:11:13;6.80;99.90
51853;DHT22;37894;53.172;6.598;2022-11-18T02:14:00;5.90;99.90
51853;DHT22;37894;53.172;6.598;2022-11-18T02:19:31;6.90;99.90
51853;DHT22;37894;53.172;6.598;2022-11-18T02:30:18;6.80;99.90
51853;DHT22;37894;53.172;6.598;2022-11-18T02:35:45;6.60;99.90
51853;DHT22;37894;53.172;6.598;2022-11-18T02:38:34;6.50;99.90
51853;DHT22;37894;53.172;6.598;2022-11-18T02:41:04;6.30;99.90
51853;DHT22;37894;53.172;6.598;2022-11-18T02:43:35;6.60;99.90
51853;DHT22;37894;53.172;6.598;2022-11-18T02:46:06;6.70;99.90
51853;DHT22;37894;53.172;6.598;2022-11-18T02:48:35;6.50;99.90
51853;DHT22;37894;53.172;6.598;2022-11-18T02:51:04;6.70;99.90
51853;DHT22;37894;53.172;6.598;2022-11-18T02:53:32;6.70;99.90
51853;DHT22;37894;53.172;6.598;2022-11-18T02:56:00;6.50;99.90
51853;DHT22;37894;53.172;6.598;2022-11-18T02:58:27;6.50;99.90
51853;DHT22;37894;53.172;6.598;2022-11-18T03:00:58;6.30;99.90
51853;DHT22;37894;53.172;6.598;2022-11-18T03:17:01;5.70;99.90
51853;DHT22;37894;53.172;6.598;2022-11-18T03:19:43;6.40;99.90
51853;DHT22;37894;53.172;6.598;2022-11-18T03:22:30;6.30;99.90
51853;DHT22;37894;53.172;6.598;2022-11-18T03:25:18;6.20;99.90
51853;DHT22;37894;53.172;6.598;2022-11-18T03:28:13;6.30;99.90
51853;DHT22;37894;53.172;6.598;2022-11-18T03:30:45;5.70;99.90
51853;DHT22;37894;53.172;6.598;2022-11-18T03:33:17;6.30;99.90
51853;DHT22;37894;53.172;6.598;2022-11-18T03:35:45;6.80;99.90
51853;DHT22;37894;53.172;6.598;2022-11-18T03:38:25;6.90;99.90
51853;DHT22;37894;53.172;6.598;2022-11-18T03:40:57;6.30;99.90
51853;DHT22;37894;53.172;6.598;2022-11-18T03:43:26;5.80;99.90
51853;DHT22;37894;53.172;6.598;2022-11-18T03:45:58;6.20;99.90
51853;DHT22;37894;53.172;6.598;2022-11-18T03:48:28;6.20;99.90
51853;DHT22;37894;53.172;6.598;2022-11-18T03:51:05;6.30;99.90
51853;DHT22;37894;53.172;6.598;2022-11-18T03:53:35;6.00;99.90
51853;DHT22;37894;53.172;6.598;2022-11-18T03:56:15;7.10;99.90
51853;DHT22;37894;53.172;6.598;2022-11-18T03:59:07;6.00;99.90
51853;DHT22;37894;53.172;6.598;2022-11-18T04:01:40;6.10;99.90
51853;DHT22;37894;53.172;6.598;2022-11-18T04:04:07;6.10;99.90
51853;DHT22;37894;53.172;6.598;2022-11-18T04:09:09;7.10;99.90
51853;DHT22;37894;53.172;6.598;2022-11-18T04:11:43;6.40;99.90
51853;DHT22;37894;53.172;6.598;2022-11-18T04:14:38;5.20;99.90
51853;DHT22;37894;53.172;6.598;2022-11-18T04:17:26;3.30;99.90
51853;DHT22;37894;53.172;6.598;2022-11-18T04:19:53;6.10;99.90
51853;DHT22;37894;53.172;6.598;2022-11-18T04:22:19;6.10;99.90
51853;DHT22;37894;53.172;6.598;2022-11-18T04:24:45;5.90;99.90
51853;DHT22;37894;53.172;6.598;2022-11-18T04:27:10;6.10;99.90
51853;DHT22;37894;53.172;6.598;2022-11-18T04:29:36;6.60;99.90
51853;DHT22;37894;53.172;6.598;2022-11-18T04:32:03;6.00;99.90
51853;DHT22;37894;53.172;6.598;2022-11-18T04:34:29;6.00;99.90
51853;DHT22;37894;53.172;6.598;2022-11-18T04:36:56;6.00;99.90
51853;DHT22;37894;53.172;6.598;2022-11-18T04:39:22;6.00;99.90
51853;DHT22;37894;53.172;6.598;2022-11-18T04:41:48;5.90;99.90
51853;DHT22;37894;53.172;6.598;2022-11-18T04:44:21;5.70;99.90
51853;DHT22;37894;53.172;6.598;2022-11-18T04:46:47;6.00;99.90
51853;DHT22;37894;53.172;6.598;2022-11-18T04:49:13;6.40;99.90
51853;DHT22;37894;53.172;6.598;2022-11-18T04:51:40;6.10;99.90
51853;DHT22;37894;53.172;6.598;2022-11-18T04:54:06;6.20;99.90
51853;DHT22;37894;53.172;6.598;2022-11-18T04:56:32;5.70;99.90
51853;DHT22;37894;53.172;6.598;2022-11-18T04:58:59;6.70;99.90
51853;DHT22;37894;53.172;6.598;2022-11-18T05:01:25;6.10;99.90
51853;DHT22;37894;53.172;6.598;2022-11-18T05:03:51;6.80;99.90
51853;DHT22;37894;53.172;6.598;2022-11-18T05:06:17;5.90;99.90
51853;DHT22;37894;53.172;6.598;2022-11-18T05:08:43;6.50;99.90
51853;DHT22;37894;53.172;6.598;2022-11-18T05:11:09;7.10;99.90
51853;DHT22;37894;53.172;6.598;2022-11-18T05:13:53;5.90;99.90
51853;DHT22;37894;53.172;6.598;2022-11-18T05:16:18;6.10;99.90
51853;DHT22;37894;53.172;6.598;2022-11-18T05:18:44;6.10;99.90
51853;DHT22;37894;53.172;6.598;2022-11-18T05:21:10;6.10;99.90
51853;DHT22;37894;53.172;6.598;2022-11-18T05:23:36;7.00;99.90
51853;DHT22;37894;53.172;6.598;2022-11-18T05:26:11;6.20;99.90
51853;DHT22;37894;53.172;6.598;2022-11-18T05:28:37;6.00;99.90
51853;DHT22;37894;53.172;6.598;2022-11-18T05:31:12;6.00;99.90
51853;DHT22;37894;53.172;6.598;2022-11-18T05:33:39;5.70;99.90
51853;DHT22;37894;53.172;6.598;2022-11-18T05:36:13;6.80;99.90
51853;DHT22;37894;53.172;6.598;2022-11-18T05:38:40;6.00;99.90
51853;DHT22;37894;53.172;6.598;2022-11-18T05:41:06;5.70;99.90
51853;DHT22;37894;53.172;6.598;2022-11-18T05:43:32;6.00;99.90
51853;DHT22;37894;53.172;6.598;2022-11-18T05:45:58;5.90;99.90
51853;DHT22;37894;53.172;6.598;2022-11-18T05:48:24;6.00;99.90
51853;DHT22;37894;53.172;6.598;2022-11-18T05:50:51;6.20;99.90
51853;DHT22;37894;53.172;6.598;2022-11-18T05:53:19;6.00;99.90
51853;DHT22;37894;53.172;6.598;2022-11-18T05:55:57;6.20;99.90
51853;DHT22;37894;53.172;6.598;2022-11-18T05:58:25;6.00;99.90
51853;DHT22;37894;53.172;6.598;2022-11-18T06:00:53;5.40;99.90
51853;DHT22;37894;53.172;6.598;2022-11-18T06:03:26;5.70;99.90
51853;DHT22;37894;53.172;6.598;2022-11-18T06:05:54;6.00;99.90
51853;DHT22;37894;53.172;6.598;2022-11-18T06:08:21;5.80;99.90
51853;DHT22;37894;53.172;6.598;2022-11-18T06:10:49;5.90;99.90
51853;DHT22;37894;53.172;6.598;2022-11-18T06:13:19;5.60;99.90
51853;DHT22;37894;53.172;6.598;2022-11-18T06:15:48;5.90;99.90
51853;DHT22;37894;53.172;6.598;2022-11-18T06:18:26;5.80;99.90
51853;DHT22;37894;53.172;6.598;2022-11-18T06:20:56;6.10;99.90
51853;DHT22;37894;53.172;6.598;2022-11-18T06:23:25;6.00;99.90
51853;DHT22;37894;53.172;6.598;2022-11-18T06:25:51;5.90;99.90
51853;DHT22;37894;53.172;6.598;2022-11-18T06:28:17;5.90;99.90
51853;DHT22;37894;53.172;6.598;2022-11-18T06:30:44;6.00;99.90
51853;DHT22;37894;53.172;6.598;2022-11-18T06:33:10;5.10;99.90
51853;DHT22;37894;53.172;6.598;2022-11-18T06:35:35;5.40;99.90
51853;DHT22;37894;53.172;6.598;2022-11-18T06:38:01;6.00;99.90
51853;DHT22;37894;53.172;6.598;2022-11-18T06:40:27;5.90;99.90
51853;DHT22;37894;53.172;6.598;2022-11-18T06:42:52;5.90;99.90
51853;DHT22;37894;53.172;6.598;2022-11-18T06:45:37;5.80;99.90
51853;DHT22;37894;53.172;6.598;2022-11-18T06:48:03;5.80;99.90
51853;DHT22;37894;53.172;6.598;2022-11-18T06:50:29;5.90;99.90
51853;DHT22;37894;53.172;6.598;2022-11-18T06:52:55;5.80;99.90
51853;DHT22;37894;53.172;6.598;2022-11-18T06:57:47;6.10;99.90
51853;DHT22;37894;53.172;6.598;2022-11-18T07:00:13;5.80;99.90
51853;DHT22;37894;53.172;6.598;2022-11-18T07:02:39;5.80;99.90
51853;DHT22;37894;53.172;6.598;2022-11-18T07:05:05;5.40;99.90
51853;DHT22;37894;53.172;6.598;2022-11-18T07:07:33;5.60;99.90
51853;DHT22;37894;53.172;6.598;2022-11-18T07:09:59;5.70;99.90
51853;DHT22;37894;53.172;6.598;2022-11-18T07:12:24;5.90;99.90
51853;DHT22;37894;53.172;6.598;2022-11-18T07:14:50;6.40;99.90
51853;DHT22;37894;53.172;6.598;2022-11-18T07:17:16;5.70;99.90
51853;DHT22;37894;53.172;6.598;2022-11-18T07:19:41;5.40;99.90
51853;DHT22;37894;53.172;6.598;2022-11-18T07:22:07;5.50;99.90
51853;DHT22;37894;53.172;6.598;2022-11-18T07:24:33;5.70;99.90
51853;DHT22;37894;53.172;6.598;2022-11-18T07:26:59;5.80;99.90
51853;DHT22;37894;53.172;6.598;2022-11-18T07:29:24;5.50;99.90
51853;DHT22;37894;53.172;6.598;2022-11-18T07:31:50;5.60;99.90
51853;DHT22;37894;53.172;6.598;2022-11-18T07:34:16;5.60;99.90
51853;DHT22;37894;53.172;6.598;2022-11-18T07:36:42;5.90;99.90
51853;DHT22;37894;53.172;6.598;2022-11-18T07:39:08;5.30;99.90
51853;DHT22;37894;53.172;6.598;2022-11-18T07:41:34;5.60;99.90
51853;DHT22;37894;53.172;6.598;2022-11-18T07:44:01;5.40;99.90
51853;DHT22;37894;53.172;6.598;2022-11-18T07:46:36;4.80;99.90
51853;DHT22;37894;53.172;6.598;2022-11-18T07:49:04;5.70;99.90
51853;DHT22;37894;53.172;6.598;2022-11-18T07:51:33;5.70;99.90
51853;DHT22;37894;53.172;6.598;2022-11-18T07:53:59;5.50;99.90
51853;DHT22;37894;53.172;6.598;2022-11-18T07:56:25;5.40;99.90
51853;DHT22;37894;53.172;6.598;2022-11-18T07:58:52;5.70;99.90
51853;DHT22;37894;53.172;6.598;2022-11-18T08:01:21;5.10;99.90
51853;DHT22;37894;53.172;6.598;2022-11-18T08:03:47;6.60;99.90
51853;DHT22;37894;53.172;6.598;2022-11-18T08:06:15;5.50;99.90
51853;DHT22;37894;53.172;6.598;2022-11-18T08:08:42;5.00;99.90
51853;DHT22;37894;53.172;6.598;2022-11-18T08:11:10;5.80;99.90
51853;DHT22;37894;53.172;6.598;2022-11-18T08:13:36;5.60;99.90
51853;DHT22;37894;53.172;6.598;2022-11-18T08:16:03;5.70;99.90
51853;DHT22;37894;53.172;6.598;2022-11-18T08:18:30;5.70;99.90
51853;DHT22;37894;53.172;6.598;2022-11-18T08:21:03;5.80;99.90
51853;DHT22;37894;53.172;6.598;2022-11-18T08:23:30;4.90;99.90
51853;DHT22;37894;53.172;6.598;2022-11-18T08:26:05;5.70;99.90
51853;DHT22;37894;53.172;6.598;2022-11-18T08:28:32;5.60;99.90
51853;DHT22;37894;53.172;6.598;2022-11-18T08:30:58;5.60;99.90
51853;DHT22;37894;53.172;6.598;2022-11-18T08:33:24;5.80;99.90
51853;DHT22;37894;53.172;6.598;2022-11-18T08:35:49;5.70;99.90
51853;DHT22;37894;53.172;6.598;2022-11-18T08:38:15;6.50;99.90
51853;DHT22;37894;53.172;6.598;2022-11-18T08:40:44;6.20;99.90
51853;DHT22;37894;53.172;6.598;2022-11-18T08:43:11;6.20;99.90
51853;DHT22;37894;53.172;6.598;2022-11-18T08:45:40;6.00;99.90
51853;DHT22;37894;53.172;6.598;2022-11-18T08:48:06;6.10;99.90
51853;DHT22;37894;53.172;6.598;2022-11-18T08:50:32;5.70;99.90
51853;DHT22;37894;53.172;6.598;2022-11-18T08:52:58;5.70;99.90
51853;DHT22;37894;53.172;6.598;2022-11-18T08:55:24;5.90;99.90
51853;DHT22;37894;53.172;6.598;2022-11-18T08:57:49;5.00;99.90
51853;DHT22;37894;53.172;6.598;2022-11-18T09:00:15;5.70;99.90
51853;DHT22;37894;53.172;6.598;2022-11-18T09:02:41;5.70;99.90
51853;DHT22;37894;53.172;6.598;2022-11-18T09:05:07;7.00;99.90
51853;DHT22;37894;53.172;6.598;2022-11-18T09:07:32;5.60;99.90
51853;DHT22;37894;53.172;6.598;2022-11-18T09:09:58;5.10;99.90
51853;DHT22;37894;53.172;6.598;2022-11-18T09:12:24;5.60;99.90
51853;DHT22;37894;53.172;6.598;2022-11-18T09:14:49;5.70;99.90
51853;DHT22;37894;53.172;6.598;2022-11-18T09:17:15;5.70;99.90
51853;DHT22;37894;53.172;6.598;2022-11-18T09:22:08;5.70;99.90
51853;DHT22;37894;53.172;6.598;2022-11-18T09:24:34;6.40;99.90
51853;DHT22;37894;53.172;6.598;2022-11-18T09:27:04;5.20;99.90
51853;DHT22;37894;53.172;6.598;2022-11-18T09:29:31;5.90;99.90
51853;DHT22;37894;53.172;6.598;2022-11-18T09:31:57;5.70;99.90
51853;DHT22;37894;53.172;6.598;2022-11-18T09:34:26;5.70;99.90
51853;DHT22;37894;53.172;6.598;2022-11-18T09:36:52;5.60;99.90
51853;DHT22;37894;53.172;6.598;2022-11-18T09:39:21;5.90;99.90
51853;DHT22;37894;53.172;6.598;2022-11-18T09:41:54;5.70;99.90
51853;DHT22;37894;53.172;6.598;2022-11-18T09:47:29;5.00;99.90
51853;DHT22;37894;53.172;6.598;2022-11-18T09:49:58;5.70;99.90
51853;DHT22;37894;53.172;6.598;2022-11-18T09:52:32;5.80;99.90
51853;DHT22;37894;53.172;6.598;2022-11-18T09:55:01;5.70;99.90
51853;DHT22;37894;53.172;6.598;2022-11-18T09:57:36;6.50;99.90
51853;DHT22;37894;53.172;6.598;2022-11-18T10:00:17;6.50;99.90
51853;DHT22;37894;53.172;6.598;2022-11-18T10:03:04;5.30;99.90
51853;DHT22;37894;53.172;6.598;2022-11-18T10:05:52;5.60;99.90
51853;DHT22;37894;53.172;6.598;2022-11-18T10:08:44;5.30;99.90
51853;DHT22;37894;53.172;6.598;2022-11-18T10:11:19;5.20;99.90
51853;DHT22;37894;53.172;6.598;2022-11-18T10:16:48;5.20;99.90
51853;DHT22;37894;53.172;6.598;2022-11-18T10:22:29;5.60;99.90
51853;DHT22;37894;53.172;6.598;2022-11-18T10:24:58;5.50;99.90
51853;DHT22;37894;53.172;6.598;2022-11-18T10:27:39;6.40;99.90
51853;DHT22;37894;53.172;6.598;2022-11-18T10:30:25;5.60;99.90
51853;DHT22;37894;53.172;6.598;2022-11-18T10:32:56;5.60;99.90
51853;DHT22;37894;53.172;6.598;2022-11-18T10:35:34;5.40;99.90
51853;DHT22;37894;53.172;6.598;2022-11-18T10:40:34;5.70;99.90
51853;DHT22;37894;53.172;6.598;2022-11-18T10:43:02;5.20;99.90
51853;DHT22;37894;53.172;6.598;2022-11-18T10:45:30;5.20;99.90
51853;DHT22;37894;53.172;6.598;2022-11-18T10:48:18;5.80;99.90
51853;DHT22;37894;53.172;6.598;2022-11-18T10:50:46;5.40;99.90
51853;DHT22;37894;53.172;6.598;2022-11-18T10:58:28;5.10;99.90
51853;DHT22;37894;53.172;6.598;2022-11-18T11:01:05;4.70;99.90
51853;DHT22;37894;53.172;6.598;2022-11-18T11:03:42;4.30;99.90
51853;DHT22;37894;53.172;6.598;2022-11-18T11:09:08;5.50;99.90
51853;DHT22;37894;53.172;6.598;2022-11-18T11:14:24;4.90;99.90
51853;DHT22;37894;53.172;6.598;2022-11-18T11:17:14;4.90;99.90
51853;DHT22;37894;53.172;6.598;2022-11-18T11:22:17;4.70;99.90
51853;DHT22;37894;53.172;6.598;2022-11-18T11:24:43;4.50;99.90
51853;DHT22;37894;53.172;6.598;2022-11-18T11:30:04;4.80;99.90
51853;DHT22;37894;53.172;6.598;2022-11-18T11:33:18;4.60;99.90
51853;DHT22;37894;53.172;6.598;2022-11-18T11:36:03;4.10;99.90
51853;DHT22;37894;53.172;6.598;2022-11-18T11:39:16;4.70;99.90
51853;DHT22;37894;53.172;6.598;2022-11-18T11:41:58;5.10;99.90
51853;DHT22;37894;53.172;6.598;2022-11-18T11:44:49;5.60;99.90
51853;DHT22;37894;53.172;6.598;2022-11-18T11:50:53;4.70;99.90
51853;DHT22;37894;53.172;6.598;2022-11-18T11:56:39;4.70;99.90
51853;DHT22;37894;53.172;6.598;2022-11-18T12:06:59;5.50;99.90
51853;DHT22;37894;53.172;6.598;2022-11-18T12:14:56;5.10;99.90
51853;DHT22;37894;53.172;6.598;2022-11-18T12:17:31;4.60;99.90
51853;DHT22;37894;53.172;6.598;2022-11-18T12:28:26;4.60;99.90
51853;DHT22;37894;53.172;6.598;2022-11-18T12:38:51;4.20;99.90
51853;DHT22;37894;53.172;6.598;2022-11-18T12:44:23;4.50;99.90
51853;DHT22;37894;53.172;6.598;2022-11-18T12:46:51;4.30;99.90
51853;DHT22;37894;53.172;6.598;2022-11-18T12:54:32;4.20;99.90
51853;DHT22;37894;53.172;6.598;2022-11-18T12:57:32;4.20;99.90
51853;DHT22;37894;53.172;6.598;2022-11-18T13:00:14;4.40;99.90
51853;DHT22;37894;53.172;6.598;2022-11-18T13:02:53;4.10;99.90
51853;DHT22;37894;53.172;6.598;2022-11-18T13:05:21;4.80;99.90
51853;DHT22;37894;53.172;6.598;2022-11-18T13:10:50;3.70;99.90
51853;DHT22;37894;53.172;6.598;2022-11-18T13:13:29;4.00;99.90
51853;DHT22;37894;53.172;6.598;2022-11-18T13:16:04;3.70;99.90
51853;DHT22;37894;53.172;6.598;2022-11-18T13:18:55;4.10;99.90
51853;DHT22;37894;53.172;6.598;2022-11-18T13:21:26;4.00;99.90
51853;DHT22;37894;53.172;6.598;2022-11-18T13:24:16;4.30;99.90
51853;DHT22;37894;53.172;6.598;2022-11-18T13:26:43;3.90;99.90
51853;DHT22;37894;53.172;6.598;2022-11-18T13:34:51;3.90;99.90
51853;DHT22;37894;53.172;6.598;2022-11-18T13:37:29;3.40;99.90
51853;DHT22;37894;53.172;6.598;2022-11-18T13:39:55;4.00;99.90
51853;DHT22;37894;53.172;6.598;2022-11-18T13:42:26;3.80;99.90
51853;DHT22;37894;53.172;6.598;2022-11-18T13:45:00;3.50;99.90
51853;DHT22;37894;53.172;6.598;2022-11-18T13:47:41;3.70;99.90
51853;DHT22;37894;53.172;6.598;2022-11-18T13:55:44;3.90;99.90
51853;DHT22;37894;53.172;6.598;2022-11-18T14:00:43;3.60;99.90
51853;DHT22;37894;53.172;6.598;2022-11-18T14:03:25;3.00;99.90
51853;DHT22;37894;53.172;6.598;2022-11-18T14:05:53;3.70;99.90
51853;DHT22;37894;53.172;6.598;2022-11-18T14:08:26;4.60;99.90
51853;DHT22;37894;53.172;6.598;2022-11-18T14:10:53;3.70;99.90
51853;DHT22;37894;53.172;6.598;2022-11-18T14:13:31;3.60;99.90
51853;DHT22;37894;53.172;6.598;2022-11-18T14:15:59;4.70;99.90
51853;DHT22;37894;53.172;6.598;2022-11-18T14:18:33;3.60;99.90
51853;DHT22;37894;53.172;6.598;2022-11-18T14:21:01;3.50;99.90
51853;DHT22;37894;53.172;6.598;2022-11-18T14:23:32;3.50;99.90
51853;DHT22;37894;53.172;6.598;2022-11-18T14:26:01;3.40;99.90
51853;DHT22;37894;53.172;6.598;2022-11-18T14:28:30;3.40;99.90
51853;DHT22;37894;53.172;6.598;2022-11-18T14:33:29;3.40;99.90
51853;DHT22;37894;53.172;6.598;2022-11-18T14:36:00;3.10;99.90
51853;DHT22;37894;53.172;6.598;2022-11-18T14:38:47;3.30;99.90
51853;DHT22;37894;53.172;6.598;2022-11-18T14:41:15;3.60;99.90
51853;DHT22;37894;53.172;6.598;2022-11-18T14:46:27;3.10;99.90
51853;DHT22;37894;53.172;6.598;2022-11-18T14:48:53;3.10;99.90
51853;DHT22;37894;53.172;6.598;2022-11-18T14:51:19;2.90;99.90
51853;DHT22;37894;53.172;6.598;2022-11-18T14:53:44;3.20;99.90
51853;DHT22;37894;53.172;6.598;2022-11-18T14:56:13;3.20;99.90
51853;DHT22;37894;53.172;6.598;2022-11-18T14:58:42;3.20;99.90
51853;DHT22;37894;53.172;6.598;2022-11-18T15:01:10;3.00;99.90
51853;DHT22;37894;53.172;6.598;2022-11-18T15:10:55;3.00;99.90
51853;DHT22;37894;53.172;6.598;2022-11-18T15:15:46;2.30;99.90
51853;DHT22;37894;53.172;6.598;2022-11-18T15:18:12;3.10;99.90
51853;DHT22;37894;53.172;6.598;2022-11-18T15:20:38;2.10;99.90
51853;DHT22;37894;53.172;6.598;2022-11-18T15:23:04;3.10;99.90
51853;DHT22;37894;53.172;6.598;2022-11-18T15:25:29;3.10;99.90
51853;DHT22;37894;53.172;6.598;2022-11-18T15:30:21;3.20;99.90
51853;DHT22;37894;53.172;6.598;2022-11-18T15:32:47;3.10;99.90
51853;DHT22;37894;53.172;6.598;2022-11-18T15:35:13;3.50;99.90
51853;DHT22;37894;53.172;6.598;2022-11-18T15:37:39;3.40;99.90
51853;DHT22;37894;53.172;6.598;2022-11-18T15:40:06;3.10;99.90
51853;DHT22;37894;53.172;6.598;2022-11-18T15:42:32;3.80;99.90
51853;DHT22;37894;53.172;6.598;2022-11-18T15:44:57;2.90;99.90
51853;DHT22;37894;53.172;6.598;2022-11-18T15:49:49;2.80;99.90
51853;DHT22;37894;53.172;6.598;2022-11-18T15:52:15;2.80;99.90
51853;DHT22;37894;53.172;6.598;2022-11-18T15:59:33;2.80;99.90
51853;DHT22;37894;53.172;6.598;2022-11-18T16:01:59;3.70;99.90
51853;DHT22;37894;53.172;6.598;2022-11-18T16:06:51;2.90;99.90
51853;DHT22;37894;53.172;6.598;2022-11-18T16:09:17;3.90;99.90
51853;DHT22;37894;53.172;6.598;2022-11-18T16:14:28;2.80;99.90
51853;DHT22;37894;53.172;6.598;2022-11-18T16:16:55;2.60;99.90
51853;DHT22;37894;53.172;6.598;2022-11-18T16:19:22;2.80;99.90
51853;DHT22;37894;53.172;6.598;2022-11-18T16:21:51;2.10;99.90
51853;DHT22;37894;53.172;6.598;2022-11-18T16:24:19;2.70;99.90
51853;DHT22;37894;53.172;6.598;2022-11-18T16:31:42;1.90;99.90
51853;DHT22;37894;53.172;6.598;2022-11-18T16:34:16;2.60;99.90
51853;DHT22;37894;53.172;6.598;2022-11-18T16:36:43;2.50;99.90
51853;DHT22;37894;53.172;6.598;2022-11-18T16:41:38;3.40;99.90
51853;DHT22;37894;53.172;6.598;2022-11-18T16:44:06;2.50;99.90
51853;DHT22;37894;53.172;6.598;2022-11-18T16:46:33;3.70;99.90
51853;DHT22;37894;53.172;6.598;2022-11-18T16:49:00;2.50;99.90
51853;DHT22;37894;53.172;6.598;2022-11-18T16:51:28;2.40;99.90
51853;DHT22;37894;53.172;6.598;2022-11-18T16:53:56;2.40;99.90
51853;DHT22;37894;53.172;6.598;2022-11-18T16:56:28;2.50;99.90
51853;DHT22;37894;53.172;6.598;2022-11-18T16:59:04;2.50;99.90
51853;DHT22;37894;53.172;6.598;2022-11-18T17:01:31;2.40;99.90
51853;DHT22;37894;53.172;6.598;2022-11-18T17:03:58;2.60;99.90
51853;DHT22;37894;53.172;6.598;2022-11-18T17:06:32;2.40;99.90
51853;DHT22;37894;53.172;6.598;2022-11-18T17:08:58;2.40;99.90
51853;DHT22;37894;53.172;6.598;2022-11-18T17:11:25;2.50;99.90
51853;DHT22;37894;53.172;6.598;2022-11-18T17:13:51;2.60;99.90
51853;DHT22;37894;53.172;6.598;2022-11-18T17:16:19;1.90;99.90
51853;DHT22;37894;53.172;6.598;2022-11-18T17:18:45;2.50;99.90
51853;DHT22;37894;53.172;6.598;2022-11-18T17:21:13;1.80;99.90
51853;DHT22;37894;53.172;6.598;2022-11-18T17:23:42;2.40;99.90
51853;DHT22;37894;53.172;6.598;2022-11-18T17:28:35;3.50;99.90
51853;DHT22;37894;53.172;6.598;2022-11-18T17:31:06;2.40;99.90
51853;DHT22;37894;53.172;6.598;2022-11-18T17:33:32;2.60;99.90
51853;DHT22;37894;53.172;6.598;2022-11-18T17:38:29;2.40;99.90
51853;DHT22;37894;53.172;6.598;2022-11-18T17:40:57;2.50;99.90
51853;DHT22;37894;53.172;6.598;2022-11-18T17:43:24;2.30;99.90
51853;DHT22;37894;53.172;6.598;2022-11-18T17:45:52;2.20;99.90
51853;DHT22;37894;53.172;6.598;2022-11-18T17:48:19;2.30;99.90
51853;DHT22;37894;53.172;6.598;2022-11-18T17:50:46;2.10;99.90
51853;DHT22;37894;53.172;6.598;2022-11-18T17:53:12;2.20;99.90
51853;DHT22;37894;53.172;6.598;2022-11-18T17:58:05;1.70;99.90
51853;DHT22;37894;53.172;6.598;2022-11-18T18:00:30;2.10;99.90
51853;DHT22;37894;53.172;6.598;2022-11-18T18:02:57;1.90;99.90
51853;DHT22;37894;53.172;6.598;2022-11-18T18:05:23;2.00;99.90
51853;DHT22;37894;53.172;6.598;2022-11-18T18:07:49;1.60;99.90
51853;DHT22;37894;53.172;6.598;2022-11-18T18:10:19;2.00;99.90
51853;DHT22;37894;53.172;6.598;2022-11-18T18:12:45;2.00;99.90
51853;DHT22;37894;53.172;6.598;2022-11-18T18:17:56;2.00;99.90
51853;DHT22;37894;53.172;6.598;2022-11-18T18:20:23;1.90;99.90
51853;DHT22;37894;53.172;6.598;2022-11-18T18:22:48;2.30;99.90
51853;DHT22;37894;53.172;6.598;2022-11-18T18:27:40;1.90;99.90
51853;DHT22;37894;53.172;6.598;2022-11-18T18:30:07;1.90;99.90
51853;DHT22;37894;53.172;6.598;2022-11-18T18:32:33;1.20;99.90
51853;DHT22;37894;53.172;6.598;2022-11-18T18:34:59;1.50;99.90
51853;DHT22;37894;53.172;6.598;2022-11-18T18:37:26;2.50;99.90
51853;DHT22;37894;53.172;6.598;2022-11-18T18:39:51;1.70;99.90
51853;DHT22;37894;53.172;6.598;2022-11-18T18:42:17;1.90;99.90
51853;DHT22;37894;53.172;6.598;2022-11-18T18:44:43;1.50;99.90
51853;DHT22;37894;53.172;6.598;2022-11-18T18:47:27;1.80;99.90
51853;DHT22;37894;53.172;6.598;2022-11-18T18:52:19;1.80;99.90
51853;DHT22;37894;53.172;6.598;2022-11-18T19:04:29;0.80;99.90
51853;DHT22;37894;53.172;6.598;2022-11-18T19:06:55;2.30;99.90
51853;DHT22;37894;53.172;6.598;2022-11-18T19:09:20;1.60;99.90
51853;DHT22;37894;53.172;6.598;2022-11-18T19:11:46;1.60;99.90
51853;DHT22;37894;53.172;6.598;2022-11-18T19:14:32;1.80;99.90